To NAV CANADA Home Page Login to a new session Search on AWWS site Feedback and Comments Disclaimer Vers la page française équivalente Tips FAQ What's new on the site To the Forecasts and Observations / NOTAM section To "File a Flight Plan" website Publications and other links Update of the User's profile FIC Telephone Numbers My Weather Data Folder Route Weather Data Regional Weather Data Local Weather Data To the Forecasts and Observations / NOTAM section
Request Generated 02/23/2017 at 20:45:58 UTC . Weather information available at that time is displayed.

METAR/TAF

QUEBEC/JEAN LESAGE INTL/QC    

SPECI CYQB 232040Z 23010KT 3SM -SHRA BR SCT039 OVC078 05/04 A2951 RMK
SC4AC4 CVCTV CLD EMBD PRESFR SLP997=
SPECI CYQB 232035Z 24011KT 2SM -SHRA BR SCT039 OVC063 05/04 A2951 RMK
SC3SC5 CVCTV CLD EMBD PRESFR SLP998=
SPECI CYQB 232014Z 26009KT 1 3/4SM -SHRA BR OVC017 04/04 A2953 RMK
SC8 CVCTV CLD EMBD PRESRR SLP005=
METAR CYQB 232000Z CCA 24007KT 2 1/2SM -SHRA BR FEW015 BKN032 OVC060
04/03 A2951 RMK SC2SC4SC2 CVCTV CLD EMBD SLP997=
METAR CYQB 232000Z 24007KT 2 1/2SM -SHRA BR FEW015 BKN032 OVC060
04/03 A2951 RMK SC2SC4SC2 SLP997=
SPECI CYQB 231948Z 23003KT 3SM R06/5500VP6000FT/U -SHRA BR SCT025
OVC041 05/04 A2950 RMK SC4SC4 CVCTV CLD EMBD PRESFR SLP994=
SPECI CYQB 231934Z 26007KT 2 1/2SM -SHRA BR FEW020 OVC032 03/03 A2951
RMK SC2SC6 CVCTV CLD EMBD PRESRR SLP998=
METAR CYQB 231900Z 00000KT 10SM -SHRA SCT035 OVC064 05/04 A2948 RMK
SC4SC4 SLP989=
SPECI CYQB 231816Z 00000KT 10SM -SHRA BKN035 OVC080 06/04 A2950 RMK
SC7AC1 CVCTV CLD EMBD / VIS LWR NW SLP996=
METAR CYQB 231800Z 02003KT 10SM BKN039 OVC080 06/04 A2951 RMK SC7AC1
SLP999=

TAF AMD CYQB 231829Z 2318/2418 VRB03KT P6SM -SHRA BKN030 TEMPO
2318/2320 2SM -SHRA BR OVC010 PROB30 2318/2320 2SM TSRA BR
BKN005 OVC015CB
FM232000 VRB03KT 6SM -SHRA BR SCT005 OVC015 TEMPO 2320/2324 2SM
-SHRA BR BKN005 OVC015
FM240000 25015KT 6SM BR OVC010 TEMPO 2400/2402 2SM BR OVC005
FM240200 27010KT 6SM BR FEW005
BECMG 2407/2409 24007KT
FM241200 24007KT P6SM FEW005 BKN020 BKN120
RMK NXT FCST BY 240000Z=
Your time UTC time
Weather data provided by Environment Canada and NAV CANADA